createdAt,value
2022-12-04T00:00:27.311Z,23.10
2022-12-04T00:03:30.614Z,23.02
2022-12-04T00:06:36.607Z,23.85
2022-12-04T00:09:40.094Z,24.37
2022-12-04T00:12:42.893Z,23.62
2022-12-04T00:15:45.706Z,23.20
2022-12-04T00:18:48.969Z,22.05
2022-12-04T00:21:52.673Z,23.15
2022-12-04T00:24:55.179Z,23.93
2022-12-04T00:27:58.436Z,23.35
2022-12-04T00:31:04.600Z,24.30
2022-12-04T00:34:08.521Z,23.30
2022-12-04T00:37:11.940Z,24.05
2022-12-04T00:40:15.037Z,22.63
2022-12-04T00:43:17.871Z,23.42
2022-12-04T00:46:22.346Z,25.60
2022-12-04T00:49:24.926Z,23.30
2022-12-04T00:52:28.436Z,25.98
2022-12-04T00:55:31.724Z,24.70
2022-12-04T00:58:36.106Z,21.33
2022-12-04T01:01:40.727Z,23.38
2022-12-04T01:04:44.522Z,22.40
2022-12-04T01:07:47.212Z,23.08
2022-12-04T01:10:51.047Z,24.03
2022-12-04T01:13:54.015Z,22.92
2022-12-04T01:16:57.632Z,23.10
2022-12-04T01:20:01.792Z,19.87
2022-12-04T01:23:05.111Z,20.67
2022-12-04T01:26:07.993Z,22.83
2022-12-04T01:29:15.562Z,18.00
2022-12-04T01:32:18.268Z,23.85
2022-12-04T01:35:21.496Z,22.30
2022-12-04T01:38:25.303Z,21.58
2022-12-04T01:41:32.016Z,21.97
2022-12-04T01:44:34.835Z,22.52
2022-12-04T01:47:37.794Z,25.08
2022-12-04T01:50:42.355Z,22.33
2022-12-04T01:53:56.173Z,23.92
2022-12-04T01:57:21.395Z,24.57
2022-12-04T02:00:24.933Z,24.15
2022-12-04T02:03:30.249Z,25.20
2022-12-04T02:06:33.591Z,22.90
2022-12-04T02:09:39.476Z,23.17
2022-12-04T02:12:51.345Z,21.70
2022-12-04T02:15:58.973Z,23.17
2022-12-04T02:19:35.996Z,23.50
2022-12-04T02:22:53.963Z,19.85
2022-12-04T02:26:02.447Z,21.60
2022-12-04T02:29:17.559Z,22.17
2022-12-04T02:32:31.133Z,22.65
2022-12-04T02:35:45.946Z,22.85
2022-12-04T02:39:05.696Z,24.75
2022-12-04T02:42:12.970Z,24.27
2022-12-04T02:45:22.291Z,25.00
2022-12-04T02:48:28.495Z,22.80
2022-12-04T02:51:36.578Z,25.80
2022-12-04T02:54:45.966Z,25.08
2022-12-04T02:57:53.836Z,24.67
2022-12-04T03:00:59.704Z,22.83
2022-12-04T03:04:27.364Z,23.87
2022-12-04T03:07:58.771Z,26.30
2022-12-04T03:11:02.222Z,24.52
2022-12-04T03:14:20.993Z,25.52
2022-12-04T03:17:31.404Z,24.70
2022-12-04T03:20:39.180Z,25.75
2022-12-04T03:23:48.176Z,25.20
2022-12-04T03:27:03.823Z,22.80
2022-12-04T03:30:12.548Z,25.30
2022-12-04T03:33:19.714Z,25.97
2022-12-04T03:36:28.341Z,23.17
2022-12-04T03:39:38.473Z,23.50
2022-12-04T03:43:16.510Z,22.17
2022-12-04T03:46:41.165Z,20.58
2022-12-04T03:50:08.055Z,21.40
2022-12-04T03:53:49.656Z,20.83
2022-12-04T03:56:57.241Z,24.65
2022-12-04T04:00:13.062Z,20.95
2022-12-04T04:03:21.344Z,20.97
2022-12-04T04:06:40.389Z,21.17
2022-12-04T04:09:47.714Z,21.40
2022-12-04T04:13:21.175Z,23.08
2022-12-04T04:16:47.189Z,18.37
2022-12-04T04:20:15.408Z,21.93
2022-12-04T04:23:38.688Z,18.85
2022-12-04T04:26:50.395Z,22.98
2022-12-04T04:29:54.075Z,19.48
2022-12-04T04:33:16.822Z,20.67
2022-12-04T04:36:33.165Z,19.63
2022-12-04T04:39:38.601Z,18.80
2022-12-04T04:42:54.550Z,20.10
2022-12-04T04:46:04.652Z,19.50
2022-12-04T04:49:12.345Z,18.67
2022-12-04T04:52:18.589Z,18.27
2022-12-04T04:55:22.609Z,18.62
2022-12-04T04:58:25.777Z,18.50
2022-12-04T05:01:29.042Z,18.62
2022-12-04T05:04:31.819Z,16.83
2022-12-04T05:07:35.492Z,17.10
2022-12-04T05:10:38.646Z,19.23
2022-12-04T05:13:44.051Z,18.52
2022-12-04T05:16:47.761Z,19.70
2022-12-04T05:19:54.233Z,18.67
2022-12-04T05:22:57.388Z,18.20
2022-12-04T05:26:02.177Z,18.80
2022-12-04T05:29:04.848Z,18.27
2022-12-04T05:32:08.331Z,18.70
2022-12-04T05:35:11.906Z,18.95
2022-12-04T05:38:14.927Z,15.60
2022-12-04T05:41:18.263Z,17.95
2022-12-04T05:44:21.518Z,16.80
2022-12-04T05:47:25.543Z,16.63
2022-12-04T05:50:32.505Z,16.98
2022-12-04T05:53:45.167Z,18.58
2022-12-04T05:56:48.568Z,17.45
2022-12-04T05:59:51.579Z,19.98
2022-12-04T06:02:54.582Z,19.90
2022-12-04T06:05:58.376Z,19.65
2022-12-04T06:09:01.713Z,21.55
2022-12-04T06:12:07.514Z,19.98
2022-12-04T06:15:11.469Z,21.75
2022-12-04T06:18:14.162Z,21.57
2022-12-04T06:21:19.369Z,21.75
2022-12-04T06:24:28.305Z,24.27
2022-12-04T06:27:35.812Z,23.17
2022-12-04T06:30:42.457Z,23.12
2022-12-04T06:33:45.865Z,22.73
2022-12-04T06:36:49.372Z,22.40
2022-12-04T06:39:52.386Z,24.50
2022-12-04T06:42:56.305Z,22.65
2022-12-04T06:46:23.414Z,21.95
2022-12-04T06:49:34.409Z,22.93
2022-12-04T06:52:40.896Z,25.10
2022-12-04T06:55:55.119Z,24.60
2022-12-04T06:59:04.216Z,29.95
2022-12-04T07:02:09.291Z,27.23
2022-12-04T07:05:19.210Z,27.47
2022-12-04T07:08:22.864Z,25.33
2022-12-04T07:11:31.973Z,25.17
2022-12-04T07:14:46.159Z,27.05
2022-12-04T07:18:01.634Z,31.02
2022-12-04T07:21:07.441Z,25.33
2022-12-04T07:24:17.642Z,27.27
2022-12-04T07:27:24.396Z,26.98
2022-12-04T07:30:41.522Z,29.08
2022-12-04T07:33:51.233Z,25.05
2022-12-04T07:36:57.249Z,25.13
2022-12-04T07:40:04.244Z,26.65
2022-12-04T07:43:08.244Z,25.85
2022-12-04T07:46:16.476Z,25.08
2022-12-04T07:49:23.173Z,26.77
2022-12-04T07:52:29.811Z,25.40
2022-12-04T07:55:38.524Z,22.80
2022-12-04T07:58:44.409Z,25.17
2022-12-04T08:01:47.326Z,23.15
2022-12-04T08:04:51.685Z,24.35
2022-12-04T08:07:55.848Z,23.80
2022-12-04T08:11:01.495Z,25.02
2022-12-04T08:14:09.106Z,27.37
2022-12-04T08:17:15.367Z,25.83
2022-12-04T08:20:26.732Z,28.95
2022-12-04T08:23:36.229Z,24.53
2022-12-04T08:26:46.144Z,25.90
2022-12-04T08:29:56.832Z,25.20
2022-12-04T08:33:13.732Z,25.85
2022-12-04T08:36:26.447Z,24.60
2022-12-04T08:39:36.334Z,22.93
2022-12-04T08:42:49.655Z,24.87
2022-12-04T08:46:04.721Z,23.20
2022-12-04T08:49:22.402Z,25.37
2022-12-04T08:52:28.606Z,27.27
2022-12-04T08:55:35.088Z,23.10
2022-12-04T08:58:42.792Z,26.27
2022-12-04T09:01:51.453Z,26.05
2022-12-04T09:05:04.259Z,27.23
2022-12-04T09:08:11.313Z,27.58
2022-12-04T09:11:23.348Z,24.77
2022-12-04T09:14:36.388Z,20.25
2022-12-04T09:17:47.792Z,26.65
2022-12-04T09:21:02.315Z,25.05
2022-12-04T09:24:07.092Z,25.02
2022-12-04T09:27:18.141Z,24.63
2022-12-04T09:30:36.284Z,26.10
2022-12-04T09:33:42.840Z,26.60
2022-12-04T09:36:48.533Z,22.92
2022-12-04T09:39:56.456Z,23.42
2022-12-04T09:43:07.292Z,24.33
2022-12-04T09:46:19.259Z,23.17
2022-12-04T09:49:39.569Z,21.65
2022-12-04T09:53:04.619Z,20.12
2022-12-04T09:56:20.761Z,23.80
2022-12-04T09:59:32.342Z,21.93
2022-12-04T10:02:43.514Z,21.52
2022-12-04T10:06:19.376Z,20.42
2022-12-04T10:09:49.229Z,14.57
2022-12-04T10:13:49.238Z,17.50
2022-12-04T10:17:12.846Z,18.42
2022-12-04T10:20:49.139Z,18.83
2022-12-04T10:24:23.601Z,17.92
2022-12-04T10:27:51.281Z,15.90
2022-12-04T10:31:17.270Z,18.33
2022-12-04T10:34:28.703Z,16.83
2022-12-04T10:37:46.442Z,14.40
2022-12-04T10:41:14.574Z,18.17
2022-12-04T10:44:27.706Z,15.77
2022-12-04T10:47:44.573Z,16.37
2022-12-04T10:51:00.389Z,15.90
2022-12-04T10:54:32.877Z,17.50
2022-12-04T10:57:42.195Z,15.52
2022-12-04T11:00:58.298Z,15.20
2022-12-04T11:04:19.570Z,15.13
2022-12-04T11:07:29.296Z,17.35
2022-12-04T11:10:40.738Z,14.90
2022-12-04T11:13:48.598Z,12.95
2022-12-04T11:17:05.651Z,13.67
2022-12-04T11:20:18.341Z,14.93
2022-12-04T11:23:22.036Z,13.77
2022-12-04T11:26:39.181Z,11.95
2022-12-04T11:29:48.243Z,15.10
2022-12-04T11:32:56.324Z,11.87
2022-12-04T11:36:06.399Z,14.70
2022-12-04T11:39:13.478Z,12.05
2022-12-04T11:42:23.339Z,15.00
2022-12-04T11:45:29.562Z,14.55
2022-12-04T11:48:45.201Z,15.40
2022-12-04T11:52:18.821Z,17.07
2022-12-04T11:55:38.210Z,15.30
2022-12-04T11:59:04.380Z,15.07
2022-12-04T12:02:39.948Z,15.70
2022-12-04T12:05:49.466Z,14.93
2022-12-04T12:09:20.292Z,13.80
2022-12-04T12:12:57.341Z,14.57
2022-12-04T12:16:17.242Z,13.10
2022-12-04T12:19:55.458Z,14.25
2022-12-04T12:23:10.213Z,14.93
2022-12-04T12:26:17.383Z,14.13
2022-12-04T12:29:49.111Z,11.40
2022-12-04T12:33:12.179Z,12.23
2022-12-04T12:36:21.757Z,15.10
2022-12-04T12:39:39.283Z,12.77
2022-12-04T12:42:58.690Z,14.17
2022-12-04T12:46:42.129Z,11.65
2022-12-04T12:49:59.312Z,13.02
2022-12-04T12:53:26.202Z,12.75
2022-12-04T12:56:49.864Z,12.97
2022-12-04T13:00:02.410Z,10.70
2022-12-04T13:03:28.242Z,14.05
2022-12-04T13:06:40.503Z,11.40
2022-12-04T13:10:17.244Z,13.32
2022-12-04T13:13:50.102Z,14.90
2022-12-04T13:17:01.194Z,14.97
2022-12-04T13:20:32.101Z,12.05
2022-12-04T13:24:31.287Z,12.70
2022-12-04T13:28:00.708Z,11.85
2022-12-04T13:31:29.472Z,12.00
2022-12-04T13:35:06.201Z,15.50
2022-12-04T13:38:35.134Z,13.20
2022-12-04T13:41:46.518Z,14.98
2022-12-04T13:45:08.969Z,13.10
2022-12-04T13:48:16.142Z,14.40
2022-12-04T13:51:44.223Z,15.80
2022-12-04T13:55:00.086Z,14.23
2022-12-04T13:58:13.208Z,14.98
2022-12-04T14:01:30.990Z,14.68
2022-12-04T14:04:47.230Z,14.80
2022-12-04T14:08:08.024Z,16.00
2022-12-04T14:11:16.910Z,16.12
2022-12-04T14:14:32.278Z,17.17
2022-12-04T14:17:40.497Z,17.20
2022-12-04T14:20:45.379Z,15.27
2022-12-04T14:23:52.338Z,17.20
2022-12-04T14:27:15.597Z,19.08
2022-12-04T14:30:22.157Z,15.93
2022-12-04T14:33:32.812Z,15.68
2022-12-04T14:41:00.316Z,16.07
2022-12-04T14:44:41.354Z,16.83
2022-12-04T14:48:02.701Z,16.60
2022-12-04T14:51:09.223Z,16.65
2022-12-04T14:54:29.276Z,15.53
2022-12-04T14:57:54.881Z,15.67
2022-12-04T15:01:36.417Z,16.20
2022-12-04T15:04:49.270Z,16.23
2022-12-04T15:08:06.385Z,16.37
2022-12-04T15:11:44.324Z,17.33
2022-12-04T15:14:52.536Z,19.73
2022-12-04T15:18:09.732Z,27.52
2022-12-04T15:21:16.201Z,20.08
2022-12-04T15:24:26.600Z,17.08
2022-12-04T15:27:33.080Z,18.70
2022-12-04T15:30:42.569Z,21.43
2022-12-04T15:33:50.176Z,21.67
2022-12-04T15:37:07.304Z,22.70
2022-12-04T15:40:21.431Z,23.02
2022-12-04T15:43:43.966Z,21.13
2022-12-04T15:46:58.391Z,21.43
2022-12-04T15:50:19.311Z,23.85
2022-12-04T15:53:32.250Z,20.77
2022-12-04T15:56:37.185Z,22.65
2022-12-04T15:59:59.130Z,25.17
2022-12-04T16:03:36.332Z,23.00
2022-12-04T16:06:48.726Z,23.35
2022-12-04T16:10:03.262Z,21.70
2022-12-04T16:13:30.239Z,24.15
2022-12-04T16:16:50.109Z,24.70
2022-12-04T16:20:02.846Z,22.80
2022-12-04T16:23:08.136Z,23.48
2022-12-04T16:26:17.266Z,27.00
2022-12-04T16:29:23.186Z,25.62
2022-12-04T16:32:34.427Z,23.20
2022-12-04T16:35:50.115Z,19.93
2022-12-04T16:38:56.160Z,23.55
2022-12-04T16:42:25.131Z,22.50
2022-12-04T16:45:33.528Z,21.83
2022-12-04T16:48:43.444Z,22.77
2022-12-04T16:51:52.440Z,22.77
2022-12-04T16:54:58.494Z,23.67
2022-12-04T16:58:08.166Z,22.17
2022-12-04T17:01:26.732Z,20.17
2022-12-04T17:04:37.205Z,22.57
2022-12-04T17:07:43.802Z,21.77
2022-12-04T17:10:50.132Z,21.02
2022-12-04T17:13:52.913Z,20.88
2022-12-04T17:17:07.259Z,22.10
2022-12-04T17:20:28.065Z,21.43
2022-12-04T17:23:32.652Z,21.20
2022-12-04T17:26:38.375Z,20.62
2022-12-04T17:29:50.722Z,23.12
2022-12-04T17:32:57.196Z,22.65
2022-12-04T17:36:15.246Z,23.07
2022-12-04T17:39:21.181Z,24.70
2022-12-04T17:42:25.334Z,23.33
2022-12-04T17:45:33.188Z,24.35
2022-12-04T17:48:38.602Z,26.35
2022-12-04T17:51:52.074Z,26.00
2022-12-04T17:55:05.331Z,23.87
2022-12-04T17:58:13.497Z,24.40
2022-12-04T18:01:20.559Z,23.58
2022-12-04T18:04:25.255Z,22.25
2022-12-04T18:07:33.227Z,22.83
2022-12-04T18:10:42.956Z,21.97
2022-12-04T18:13:51.189Z,22.48
2022-12-04T18:17:06.243Z,24.15
2022-12-04T18:20:13.764Z,23.98
2022-12-04T18:23:31.181Z,24.57
2022-12-04T18:26:45.205Z,23.23
2022-12-04T18:29:53.623Z,23.45
2022-12-04T18:33:06.091Z,22.90
2022-12-04T18:36:28.584Z,24.27
2022-12-04T18:39:37.644Z,23.57
2022-12-04T18:42:41.933Z,22.17
2022-12-04T18:46:04.173Z,22.40
2022-12-04T18:49:13.160Z,21.12
2022-12-04T18:52:16.653Z,21.25
2022-12-04T18:55:24.376Z,22.23
2022-12-04T18:58:29.610Z,20.87
2022-12-04T19:01:35.364Z,20.88
2022-12-04T19:04:48.115Z,21.67
2022-12-04T19:07:54.224Z,19.70
2022-12-04T19:11:16.060Z,19.73
2022-12-04T19:14:37.188Z,21.53
2022-12-04T19:17:44.162Z,20.33
2022-12-04T19:20:53.162Z,19.98
2022-12-04T19:24:00.349Z,21.35
2022-12-04T19:27:13.471Z,19.90
2022-12-04T19:30:19.166Z,19.53
2022-12-04T19:33:34.399Z,20.52
2022-12-04T19:36:48.149Z,21.80
2022-12-04T19:40:02.390Z,21.98
2022-12-04T19:43:06.725Z,21.40
2022-12-04T19:46:15.885Z,16.13
2022-12-04T19:49:31.255Z,20.25
2022-12-04T19:52:40.462Z,20.55
2022-12-04T19:55:51.315Z,21.77
2022-12-04T19:58:57.439Z,21.40
2022-12-04T20:02:00.646Z,20.20
2022-12-04T20:05:12.162Z,19.83
2022-12-04T20:08:28.182Z,19.87
2022-12-04T20:11:36.200Z,20.45
2022-12-04T20:14:45.602Z,21.23
2022-12-04T20:17:48.701Z,20.47
2022-12-04T20:20:57.126Z,21.40
2022-12-04T20:24:11.482Z,18.65
2022-12-04T20:27:17.301Z,18.17
2022-12-04T20:30:26.232Z,19.00
2022-12-04T20:33:37.185Z,19.90
2022-12-04T20:36:47.166Z,18.60
2022-12-04T20:39:53.639Z,20.25
2022-12-04T20:43:07.055Z,19.30
2022-12-04T20:46:29.216Z,19.07
2022-12-04T20:49:51.110Z,20.77
2022-12-04T20:53:11.222Z,21.35
2022-12-04T20:56:17.229Z,20.95
2022-12-04T20:59:26.080Z,20.60
2022-12-04T21:02:37.082Z,15.77
2022-12-04T21:05:42.151Z,11.57
2022-12-04T21:08:56.130Z,9.88
2022-12-04T21:12:24.366Z,6.78
2022-12-04T21:15:47.417Z,5.93
2022-12-04T21:18:52.129Z,5.10
2022-12-04T21:21:58.430Z,6.67
2022-12-04T21:25:15.113Z,5.87
2022-12-04T21:28:18.700Z,7.43
2022-12-04T21:31:22.271Z,8.45
2022-12-04T21:34:26.472Z,8.83
2022-12-04T21:37:31.156Z,10.27
2022-12-04T21:40:42.096Z,10.77
2022-12-04T21:43:47.177Z,7.37
2022-12-04T21:46:51.237Z,7.53
2022-12-04T21:49:56.676Z,6.83
2022-12-04T21:53:06.069Z,5.80
2022-12-04T21:56:12.421Z,4.82
2022-12-04T21:59:18.095Z,4.43
2022-12-04T22:02:25.346Z,4.18
2022-12-04T22:05:32.319Z,4.17
2022-12-04T22:08:38.343Z,4.30
2022-12-04T22:11:48.490Z,4.68
2022-12-04T22:14:53.259Z,6.15
2022-12-04T22:17:56.786Z,5.55
2022-12-04T22:21:04.333Z,4.90
2022-12-04T22:24:10.669Z,6.07
2022-12-04T22:27:16.153Z,6.87
2022-12-04T22:30:19.369Z,5.87
2022-12-04T22:33:23.293Z,9.55
2022-12-04T22:36:32.043Z,8.13
2022-12-04T22:39:35.105Z,9.20
2022-12-04T22:42:39.386Z,8.50
2022-12-04T22:45:42.652Z,6.10
2022-12-04T22:48:46.325Z,9.57
2022-12-04T22:51:49.312Z,7.77
2022-12-04T22:54:54.130Z,6.50
2022-12-04T22:57:57.128Z,4.97
2022-12-04T23:01:00.827Z,5.57
2022-12-04T23:04:03.831Z,6.82
2022-12-04T23:07:09.077Z,7.87
2022-12-04T23:10:13.110Z,6.80
2022-12-04T23:13:16.024Z,5.40
2022-12-04T23:16:20.789Z,4.62
2022-12-04T23:19:25.457Z,5.78
2022-12-04T23:22:28.548Z,7.30
2022-12-04T23:25:31.346Z,5.40
2022-12-04T23:28:34.170Z,4.97
2022-12-04T23:31:39.192Z,6.72
2022-12-04T23:34:41.839Z,5.90
2022-12-04T23:37:46.171Z,5.03
2022-12-04T23:40:48.850Z,7.60
2022-12-04T23:43:53.448Z,6.03
2022-12-04T23:46:56.389Z,4.95
2022-12-04T23:49:59.818Z,5.18
2022-12-04T23:53:03.207Z,5.90
2022-12-04T23:56:32.874Z,5.97
2022-12-04T23:59:36.279Z,5.65
